Terminal Aerodrome Forecast
Issued by NWS Greer, SC

Current Version | Previous Version | Text Only | Print | Product List | Glossary On
Versions: 1 2 3 4 5 6 7 8 9 10 11 12 13 14 15 16 17 18 19 20 21 22 23 24 25 26
000
FTUS42 KGSP 061124
TAFAVL
TAF
KAVL 061124Z 0612/0712 35003KT P6SM SKC
     FM061700 16005G12KT P6SM FEW250
     FM061900 16008G15KT P6SM FEW060
     FM070200 00000KT P6SM FEW060=

USA.gov is the U.S. government's official web portal to all federal, state and local government web resources and services.